createdAt,value
2018-08-09T00:02:00.474Z,63.86
2018-08-09T00:04:29.959Z,63.88
2018-08-09T00:06:59.369Z,63.79
2018-08-09T00:09:28.764Z,64.04
2018-08-09T00:11:58.862Z,64.95
2018-08-09T00:14:29.040Z,64.45
2018-08-09T00:16:58.468Z,64.53
2018-08-09T00:19:27.913Z,65.04
2018-08-09T00:21:57.557Z,65.11
2018-08-09T00:24:27.020Z,65.64
2018-08-09T00:26:56.453Z,65.64
2018-08-09T00:29:26.090Z,65.34
2018-08-09T00:31:55.513Z,64.74
2018-08-09T00:34:25.488Z,64.04
2018-08-09T00:36:54.904Z,63.94
2018-08-09T00:39:24.757Z,62.83
2018-08-09T00:41:55.156Z,63.31
2018-08-09T00:44:24.599Z,62.63
2018-08-09T00:46:54.021Z,62.22
2018-08-09T00:49:26.658Z,62.34
2018-08-09T00:51:56.102Z,61.81
2018-08-09T00:54:25.529Z,61.70
2018-08-09T00:56:54.967Z,61.37
2018-08-09T00:59:24.400Z,61.32
2018-08-09T01:01:53.840Z,61.16
2018-08-09T01:04:23.290Z,61.44
2018-08-09T01:06:52.748Z,61.39
2018-08-09T01:09:22.186Z,60.64
2018-08-09T01:11:51.616Z,60.89
2018-08-09T01:14:21.055Z,60.47
2018-08-09T01:16:50.865Z,61.21
2018-08-09T01:19:20.326Z,61.39
2018-08-09T01:21:49.778Z,61.01
2018-08-09T01:24:19.274Z,61.05
2018-08-09T01:26:48.684Z,61.16
2018-08-09T01:29:18.079Z,61.14
2018-08-09T01:31:47.519Z,61.67
2018-08-09T01:34:17.018Z,62.37
2018-08-09T01:36:47.173Z,62.01
2018-08-09T01:39:17.509Z,61.20
2018-08-09T01:41:58.964Z,61.39
2018-08-09T01:44:28.356Z,60.55
2018-08-09T01:46:58.130Z,60.14
2018-08-09T01:49:27.597Z,59.72
2018-08-09T01:51:57.043Z,59.25
2018-08-09T01:54:26.529Z,58.96
2018-08-09T01:56:55.975Z,59.68
2018-08-09T01:59:25.761Z,58.84
2018-08-09T02:01:55.152Z,57.08
2018-08-09T02:04:25.206Z,57.59
2018-08-09T02:06:54.804Z,57.45
2018-08-09T02:09:29.408Z,58.23
2018-08-09T02:11:58.796Z,59.08
2018-08-09T02:14:28.185Z,60.95
2018-08-09T02:16:57.733Z,61.56
2018-08-09T02:19:27.109Z,62.40
2018-08-09T02:21:56.754Z,62.07
2018-08-09T02:24:26.502Z,62.30
2018-08-09T02:26:55.949Z,63.52
2018-08-09T02:29:25.361Z,63.27
2018-08-09T02:31:54.769Z,63.82
2018-08-09T02:34:24.202Z,64.35
2018-08-09T02:36:53.582Z,65.15
2018-08-09T02:39:23.010Z,64.52
2018-08-09T02:41:52.440Z,64.16
2018-08-09T02:44:21.939Z,64.56
2018-08-09T02:46:51.408Z,64.43
2018-08-09T02:49:21.000Z,64.05
2018-08-09T02:51:51.102Z,63.31
2018-08-09T02:54:20.522Z,64.26
2018-08-09T02:56:53.901Z,63.97
2018-08-09T02:59:23.423Z,64.49
2018-08-09T03:01:52.800Z,64.73
2018-08-09T03:04:22.312Z,64.19
2018-08-09T03:06:51.835Z,62.79
2018-08-09T03:09:21.252Z,63.12
2018-08-09T03:11:50.644Z,63.51
2018-08-09T03:14:20.190Z,62.23
2018-08-09T03:16:49.592Z,63.08
2018-08-09T03:19:19.009Z,63.38
2018-08-09T03:21:48.560Z,63.19
2018-08-09T03:24:18.898Z,63.52
2018-08-09T03:26:48.724Z,64.16
2018-08-09T03:29:18.229Z,64.20
2018-08-09T03:31:48.024Z,64.28
2018-08-09T03:34:17.508Z,65.29
2018-08-09T03:36:46.908Z,65.39
2018-08-09T03:39:16.326Z,65.74
2018-08-09T03:41:45.786Z,64.93
2018-08-09T03:44:15.226Z,64.94
2018-08-09T03:46:45.625Z,65.12
2018-08-09T03:49:15.060Z,65.56
2018-08-09T03:51:44.577Z,65.11
2018-08-09T03:54:14.033Z,65.11
2018-08-09T03:56:43.464Z,65.02
2018-08-09T03:59:12.941Z,65.22
2018-08-09T04:01:42.364Z,64.17
2018-08-09T04:04:11.825Z,64.26
2018-08-09T04:06:41.593Z,63.37
2018-08-09T04:09:11.993Z,63.11
2018-08-09T04:11:42.989Z,62.86
2018-08-09T04:14:12.593Z,62.95
2018-08-09T04:16:42.058Z,62.39
2018-08-09T04:19:11.492Z,62.35
2018-08-09T04:21:41.241Z,61.87
2018-08-09T04:24:10.667Z,61.94
2018-08-09T04:26:40.940Z,62.33
2018-08-09T04:29:11.619Z,62.39
2018-08-09T04:31:42.291Z,62.01
2018-08-09T04:34:11.730Z,62.44
2018-08-09T04:36:41.565Z,62.39
2018-08-09T04:39:12.528Z,62.30
2018-08-09T04:41:42.935Z,62.25
2018-08-09T04:44:14.285Z,61.56
2018-08-09T04:46:44.637Z,61.30
2018-08-09T04:49:14.183Z,61.31
2018-08-09T04:51:43.772Z,60.67
2018-08-09T04:54:13.333Z,60.69
2018-08-09T04:56:42.761Z,60.83
2018-08-09T04:59:12.395Z,61.43
2018-08-09T05:01:41.926Z,60.91
2018-08-09T05:04:12.305Z,61.75
2018-08-09T05:06:41.788Z,61.91
2018-08-09T05:09:11.803Z,62.80
2018-08-09T05:11:42.130Z,62.37
2018-08-09T05:14:11.872Z,62.73
2018-08-09T05:16:42.107Z,62.88
2018-08-09T05:19:11.569Z,62.45
2018-08-09T05:21:42.061Z,62.19
2018-08-09T05:24:12.085Z,61.96
2018-08-09T05:26:41.584Z,62.55
2018-08-09T05:29:11.021Z,62.02
2018-08-09T05:31:40.568Z,61.75
2018-08-09T05:34:09.995Z,61.78
2018-08-09T05:36:39.629Z,61.47
2018-08-09T05:39:14.027Z,61.93
2018-08-09T05:41:43.651Z,61.90
2018-08-09T05:44:14.083Z,61.91
2018-08-09T05:46:43.473Z,61.31
2018-08-09T05:49:14.015Z,61.89
2018-08-09T05:51:43.413Z,61.24
2018-08-09T05:54:13.033Z,61.42
2018-08-09T05:56:42.424Z,61.17
2018-08-09T05:59:12.331Z,60.87
2018-08-09T06:01:41.746Z,60.56
2018-08-09T06:04:11.693Z,60.06
2018-08-09T06:06:41.176Z,59.44
2018-08-09T06:09:14.313Z,58.51
2018-08-09T06:11:44.405Z,58.20
2018-08-09T06:14:13.783Z,59.25
2018-08-09T06:16:43.637Z,58.10
2018-08-09T06:19:13.084Z,57.89
2018-08-09T06:21:42.535Z,57.59
2018-08-09T06:24:11.932Z,56.96
2018-08-09T06:26:42.370Z,57.44
2018-08-09T06:29:11.871Z,57.58
2018-08-09T06:31:41.909Z,56.87
2018-08-09T06:34:11.336Z,56.49
2018-08-09T06:36:41.529Z,57.19
2018-08-09T06:39:10.933Z,57.14
2018-08-09T06:41:40.969Z,56.72
2018-08-09T06:44:10.517Z,57.00
2018-08-09T06:46:40.261Z,56.22
2018-08-09T06:49:09.692Z,55.78
2018-08-09T06:51:39.300Z,55.86
2018-08-09T06:54:09.188Z,55.29
2018-08-09T06:56:39.125Z,52.98
2018-08-09T06:59:08.614Z,52.98
2018-08-09T07:01:38.057Z,52.84
2018-08-09T07:04:07.666Z,52.98
2018-08-09T07:06:37.141Z,52.39
2018-08-09T07:09:11.369Z,51.56
2018-08-09T07:11:40.852Z,50.92
2018-08-09T07:14:11.726Z,50.42
2018-08-09T07:16:42.343Z,49.78
2018-08-09T07:19:11.883Z,49.83
2018-08-09T07:21:41.377Z,49.99
2018-08-09T07:24:11.279Z,48.55
2018-08-09T07:26:41.851Z,46.48
2018-08-09T07:29:12.583Z,46.72
2018-08-09T07:31:42.085Z,46.22
2018-08-09T07:34:44.738Z,47.62
2018-08-09T07:37:15.133Z,47.60
2018-08-09T07:39:46.128Z,46.05
2018-08-09T07:42:15.639Z,45.72
2018-08-09T07:44:45.301Z,45.84
2018-08-09T07:47:16.664Z,45.01
2018-08-09T07:49:46.753Z,44.61
2018-08-09T07:52:16.935Z,45.08
2018-08-09T07:54:47.427Z,44.83
2018-08-09T07:57:17.775Z,44.51
2018-08-09T07:59:48.376Z,44.97
2018-08-09T08:02:18.472Z,44.54
2018-08-09T08:04:48.164Z,45.39
2018-08-09T08:07:18.697Z,44.81
2018-08-09T08:09:49.037Z,44.29
2018-08-09T08:12:18.531Z,44.96
2018-08-09T08:14:48.904Z,44.91
2018-08-09T08:17:18.397Z,44.21
2018-08-09T08:19:48.087Z,44.50
2018-08-09T08:22:17.567Z,44.52
2018-08-09T08:24:47.980Z,45.00
2018-08-09T08:30:20.089Z,45.63
2018-08-09T08:32:50.591Z,45.39
2018-08-09T08:35:20.172Z,45.67
2018-08-09T08:37:49.806Z,45.36
2018-08-09T08:40:19.184Z,45.69
2018-08-09T08:42:48.584Z,46.69
2018-08-09T08:45:18.616Z,46.54
2018-08-09T08:47:48.067Z,46.18
2018-08-09T08:50:17.766Z,46.49
2018-08-09T08:52:47.517Z,46.77
2018-08-09T08:55:17.646Z,46.64
2018-08-09T08:57:48.817Z,47.39
2018-08-09T09:00:21.275Z,47.57
2018-08-09T09:02:51.062Z,46.91
2018-08-09T09:05:23.188Z,46.49
2018-08-09T09:07:52.613Z,46.79
2018-08-09T09:10:22.560Z,47.00
2018-08-09T09:12:52.545Z,47.18
2018-08-09T09:15:21.965Z,46.59
2018-08-09T09:17:52.397Z,46.50
2018-08-09T09:20:22.591Z,46.23
2018-08-09T09:22:53.132Z,46.85
2018-08-09T09:25:22.581Z,46.19
2018-08-09T09:27:52.138Z,45.92
2018-08-09T09:30:22.992Z,46.31
2018-08-09T09:32:55.600Z,46.63
2018-08-09T09:35:25.001Z,45.53
2018-08-09T09:37:57.085Z,46.24
2018-08-09T09:40:28.196Z,45.44
2018-08-09T09:42:58.287Z,45.84
2018-08-09T09:45:27.892Z,44.99
2018-08-09T09:47:57.365Z,45.34
2018-08-09T09:50:27.440Z,44.91
2018-08-09T09:52:57.494Z,44.43
2018-08-09T09:55:26.903Z,47.14
2018-08-09T09:57:57.616Z,46.57
2018-08-09T10:00:30.164Z,45.96
2018-08-09T10:02:59.936Z,45.14
2018-08-09T10:05:29.371Z,44.77
2018-08-09T10:07:59.687Z,44.17
2018-08-09T10:10:29.338Z,45.83
2018-08-09T10:13:08.221Z,43.92
2018-08-09T10:15:46.565Z,42.96
2018-08-09T10:18:16.071Z,42.64
2018-08-09T10:20:45.646Z,43.01
2018-08-09T10:23:15.627Z,41.72
2018-08-09T10:25:45.668Z,41.70
2018-08-09T10:28:25.654Z,42.05
2018-08-09T10:30:56.352Z,43.15
2018-08-09T10:33:25.835Z,42.39
2018-08-09T10:35:56.674Z,41.88
2018-08-09T10:38:26.189Z,41.83
2018-08-09T10:40:56.474Z,39.90
2018-08-09T10:43:26.152Z,39.33
2018-08-09T10:45:57.020Z,39.12
2018-08-09T10:48:27.403Z,39.23
2018-08-09T10:50:56.817Z,39.46
2018-08-09T10:53:27.303Z,39.43
2018-08-09T10:55:57.790Z,41.25
2018-08-09T10:58:28.240Z,41.19
2018-08-09T11:00:57.672Z,39.84
2018-08-09T11:03:27.158Z,39.21
2018-08-09T11:05:59.409Z,38.33
2018-08-09T11:08:29.312Z,38.72
2018-08-09T11:11:03.578Z,38.44
2018-08-09T11:13:33.843Z,37.15
2018-08-09T11:16:03.794Z,37.09
2018-08-09T11:18:33.170Z,35.77
2018-08-09T11:21:03.463Z,36.26
2018-08-09T11:23:33.182Z,36.80
2018-08-09T11:26:02.625Z,35.42
2018-08-09T11:28:32.134Z,34.07
2018-08-09T11:31:01.625Z,33.03
2018-08-09T11:33:31.996Z,32.98
2018-08-09T11:36:06.013Z,32.56
2018-08-09T11:38:35.479Z,34.12
2018-08-09T11:41:04.940Z,32.82
2018-08-09T11:43:35.593Z,32.08
2018-08-09T11:46:05.660Z,32.33
2018-08-09T11:48:35.377Z,32.19
2018-08-09T11:51:12.763Z,30.84
2018-08-09T11:53:43.117Z,31.27
2018-08-09T11:56:13.196Z,32.61
2018-08-09T11:58:43.361Z,32.56
2018-08-09T12:01:13.130Z,33.08
2018-08-09T12:03:43.319Z,32.07
2018-08-09T12:06:12.762Z,29.32
2018-08-09T12:08:42.482Z,30.57
2018-08-09T12:11:15.605Z,28.42
2018-08-09T12:13:45.107Z,27.95
2018-08-09T12:16:16.036Z,27.39
2018-08-09T12:18:45.525Z,27.06
2018-08-09T12:21:15.015Z,26.86
2018-08-09T12:23:44.426Z,26.41
2018-08-09T12:26:13.991Z,26.88
2018-08-09T12:28:43.440Z,27.29
2018-08-09T12:31:13.333Z,26.55
2018-08-09T12:33:42.988Z,26.54
2018-08-09T12:36:12.900Z,26.66
2018-08-09T12:38:42.600Z,26.24
2018-08-09T12:41:15.956Z,26.53
2018-08-09T12:43:46.562Z,27.51
2018-08-09T12:46:16.012Z,28.58
2018-08-09T12:48:45.950Z,27.75
2018-08-09T12:51:15.409Z,26.99
2018-08-09T12:53:45.520Z,27.65
2018-08-09T12:56:14.997Z,27.32
2018-08-09T12:58:44.762Z,26.58
2018-08-09T13:01:14.272Z,28.22
2018-08-09T13:03:43.836Z,27.41
2018-08-09T13:06:13.249Z,27.76
2018-08-09T13:08:45.226Z,26.95
2018-08-09T13:11:21.458Z,25.77
2018-08-09T13:13:54.279Z,26.18
2018-08-09T13:16:23.742Z,26.24
2018-08-09T13:18:54.800Z,25.85
2018-08-09T13:21:24.249Z,24.55
2018-08-09T13:23:53.653Z,25.26
2018-08-09T13:26:24.552Z,26.84
2018-08-09T13:28:54.000Z,26.16
2018-08-09T13:31:24.288Z,26.31
2018-08-09T13:33:56.346Z,26.71
2018-08-09T13:36:26.099Z,28.27
2018-08-09T13:38:55.660Z,28.48
2018-08-09T13:41:25.106Z,26.60
2018-08-09T13:43:54.970Z,26.71
2018-08-09T13:46:24.385Z,26.74
2018-08-09T13:48:56.363Z,26.66
2018-08-09T13:51:25.860Z,27.15
2018-08-09T13:53:55.535Z,27.07
2018-08-09T13:56:25.385Z,26.95
2018-08-09T13:58:56.004Z,27.07
2018-08-09T14:01:26.097Z,26.75
2018-08-09T14:03:56.927Z,26.79
2018-08-09T14:06:28.264Z,26.56
2018-08-09T14:08:58.377Z,27.06
2018-08-09T14:11:29.891Z,26.77
2018-08-09T14:13:59.893Z,28.40
2018-08-09T14:16:29.643Z,28.87
2018-08-09T14:18:59.125Z,28.31
2018-08-09T14:21:29.372Z,28.23
2018-08-09T14:23:59.253Z,27.75
2018-08-09T14:26:29.086Z,28.04
2018-08-09T14:28:58.805Z,27.95
2018-08-09T14:31:30.465Z,27.67
2018-08-09T14:34:02.017Z,27.82
2018-08-09T14:36:35.581Z,28.54
2018-08-09T14:39:09.324Z,28.16
2018-08-09T14:41:41.273Z,27.82
2018-08-09T14:44:10.815Z,28.04
2018-08-09T14:46:42.748Z,26.99
2018-08-09T14:49:12.485Z,27.96
2018-08-09T14:51:42.278Z,29.12
2018-08-09T14:54:13.201Z,29.12
2018-08-09T14:56:44.476Z,29.63
2018-08-09T14:59:13.901Z,28.68
2018-08-09T15:01:45.446Z,28.92
2018-08-09T15:04:15.170Z,28.95
2018-08-09T15:06:46.737Z,29.32
2018-08-09T15:09:18.756Z,29.54
2018-08-09T15:11:48.632Z,29.63
2018-08-09T15:14:18.115Z,29.42
2018-08-09T15:16:47.587Z,29.05
2018-08-09T15:19:17.963Z,29.42
2018-08-09T15:21:49.272Z,29.54
2018-08-09T15:24:18.792Z,29.35
2018-08-09T15:26:48.248Z,29.16
2018-08-09T15:29:17.764Z,29.06
2018-08-09T15:31:47.530Z,30.07
2018-08-09T15:34:17.006Z,30.15
2018-08-09T15:36:46.512Z,30.20
2018-08-09T15:39:16.017Z,29.69
2018-08-09T15:41:45.426Z,30.58
2018-08-09T15:44:14.933Z,30.49
2018-08-09T15:46:44.432Z,30.80
2018-08-09T15:49:13.881Z,30.37
2018-08-09T15:51:43.431Z,30.63
2018-08-09T15:54:13.466Z,30.87
2018-08-09T15:56:45.449Z,30.87
2018-08-09T15:59:15.449Z,30.93
2018-08-09T16:01:46.622Z,31.45
2018-08-09T16:04:16.737Z,31.35
2018-08-09T16:06:49.254Z,31.30
2018-08-09T16:09:22.078Z,31.18
2018-08-09T16:11:52.314Z,31.88
2018-08-09T16:14:25.780Z,31.70
2018-08-09T16:16:55.223Z,31.79
2018-08-09T16:19:27.256Z,31.51
2018-08-09T16:21:57.063Z,31.63
2018-08-09T16:24:27.611Z,30.97
2018-08-09T16:26:57.127Z,32.55
2018-08-09T16:29:26.609Z,32.99
2018-08-09T16:31:56.480Z,33.25
2018-08-09T16:34:28.926Z,33.68
2018-08-09T16:36:58.383Z,34.23
2018-08-09T16:39:28.792Z,34.29
2018-08-09T16:41:58.942Z,33.82
2018-08-09T16:44:29.299Z,33.55
2018-08-09T16:46:59.342Z,33.22
2018-08-09T16:49:28.823Z,33.53
2018-08-09T16:51:59.557Z,34.22
2018-08-09T16:55:40.118Z,33.70
2018-08-09T16:58:13.312Z,34.46
2018-08-09T17:00:46.666Z,34.43
2018-08-09T17:03:19.281Z,34.27
2018-08-09T17:05:52.885Z,33.81
2018-08-09T17:08:22.724Z,34.54
2018-08-09T17:10:53.003Z,33.68
2018-08-09T17:13:22.802Z,33.89
2018-08-09T17:15:52.251Z,34.23
2018-08-09T17:18:22.659Z,34.37
2018-08-09T17:20:52.462Z,34.69
2018-08-09T17:23:22.050Z,35.27
2018-08-09T17:25:53.354Z,35.85
2018-08-09T17:28:24.745Z,35.73
2018-08-09T17:31:05.397Z,35.64
2018-08-09T17:33:34.991Z,35.98
2018-08-09T17:36:06.210Z,35.93
2018-08-09T17:38:36.632Z,36.94
2018-08-09T17:41:07.082Z,37.01
2018-08-09T17:43:37.241Z,37.14
2018-08-09T17:46:07.534Z,37.25
2018-08-09T17:48:37.206Z,37.79
2018-08-09T17:51:07.135Z,37.75
2018-08-09T17:53:37.365Z,37.96
2018-08-09T17:56:16.216Z,38.38
2018-08-09T17:58:45.989Z,38.24
2018-08-09T18:01:15.495Z,38.67
2018-08-09T18:03:47.907Z,38.88
2018-08-09T18:06:17.340Z,38.96
2018-08-09T18:08:46.848Z,39.20
2018-08-09T18:11:16.771Z,39.06
2018-08-09T18:13:46.339Z,38.50
2018-08-09T18:16:16.541Z,38.90
2018-08-09T18:18:47.626Z,39.34
2018-08-09T18:21:17.462Z,38.94
2018-08-09T18:23:47.310Z,39.71
2018-08-09T18:26:18.562Z,39.18
2018-08-09T18:28:49.123Z,39.43
2018-08-09T18:31:19.416Z,39.59
2018-08-09T18:33:49.043Z,39.93
2018-08-09T18:36:19.225Z,39.43
2018-08-09T18:38:49.300Z,39.98
2018-08-09T18:41:18.894Z,40.02
2018-08-09T18:43:48.654Z,40.49
2018-08-09T18:46:20.241Z,39.70
2018-08-09T18:48:50.665Z,40.46
2018-08-09T18:51:23.504Z,40.18
2018-08-09T18:53:53.993Z,40.02
2018-08-09T18:56:34.420Z,40.73
2018-08-09T18:59:07.912Z,40.13
2018-08-09T19:01:43.813Z,40.52
2018-08-09T19:04:13.368Z,40.62
2018-08-09T19:06:45.650Z,40.93
2018-08-09T19:09:15.887Z,41.56
2018-08-09T19:11:58.263Z,41.28
2018-08-09T19:14:29.393Z,41.45
2018-08-09T19:16:59.224Z,41.47
2018-08-09T19:19:30.112Z,41.82
2018-08-09T19:22:00.181Z,41.57
2018-08-09T19:24:29.779Z,41.67
2018-08-09T19:26:59.336Z,42.36
2018-08-09T19:29:28.987Z,41.90
2018-08-09T19:31:58.573Z,42.29
2018-08-09T19:34:28.481Z,42.79
2018-08-09T19:36:58.472Z,43.01
2018-08-09T19:39:29.865Z,43.11
2018-08-09T19:41:59.616Z,43.15
2018-08-09T19:44:29.476Z,43.22
2018-08-09T19:46:58.982Z,43.16
2018-08-09T19:49:29.348Z,43.87
2018-08-09T19:52:00.471Z,43.48
2018-08-09T19:54:30.272Z,43.45
2018-08-09T19:57:01.602Z,43.63
2018-08-09T20:00:32.519Z,43.90
2018-08-09T20:03:02.296Z,44.05
2018-08-09T20:05:32.708Z,44.89
2018-08-09T20:08:02.863Z,44.28
2018-08-09T20:10:33.113Z,44.48
2018-08-09T20:13:03.050Z,44.70
2018-08-09T20:15:32.960Z,44.86
2018-08-09T20:18:02.410Z,45.75
2018-08-09T20:20:32.399Z,45.91
2018-08-09T20:23:02.277Z,45.50
2018-08-09T20:25:31.736Z,45.65
2018-08-09T20:28:01.341Z,45.54
2018-08-09T20:30:30.796Z,45.83
2018-08-09T20:33:00.318Z,46.44
2018-08-09T20:35:29.812Z,45.96
2018-08-09T20:37:59.356Z,46.23
2018-08-09T20:40:28.833Z,46.86
2018-08-09T20:42:58.280Z,47.41
2018-08-09T20:45:27.747Z,46.90
2018-08-09T20:47:57.543Z,46.91
2018-08-09T20:50:28.525Z,47.86
2018-08-09T20:53:00.030Z,47.57
2018-08-09T20:55:29.619Z,48.27
2018-08-09T20:57:59.652Z,47.61
2018-08-09T21:00:30.854Z,48.00
2018-08-09T21:03:01.110Z,47.92
2018-08-09T21:05:33.932Z,47.94
2018-08-09T21:08:03.589Z,48.53
2018-08-09T21:10:33.464Z,48.70
2018-08-09T21:13:02.915Z,48.52
2018-08-09T21:15:33.183Z,48.64
2018-08-09T21:18:02.708Z,48.65
2018-08-09T21:20:32.182Z,48.96
2018-08-09T21:23:01.749Z,48.67
2018-08-09T21:25:31.254Z,49.20
2018-08-09T21:28:00.801Z,48.88
2018-08-09T21:30:30.269Z,49.21
2018-08-09T21:33:00.178Z,49.73
2018-08-09T21:35:29.643Z,49.18
2018-08-09T21:38:00.484Z,50.13
2018-08-09T21:40:30.013Z,49.42
2018-08-09T21:43:00.574Z,49.31
2018-08-09T21:45:30.409Z,48.73
2018-08-09T21:47:59.851Z,48.39
2018-08-09T21:50:29.304Z,48.85
2018-08-09T21:52:58.853Z,48.46
2018-08-09T21:55:30.089Z,48.28
2018-08-09T21:57:59.886Z,48.53
2018-08-09T22:01:03.780Z,48.09
2018-08-09T22:03:35.428Z,48.11
2018-08-09T22:06:10.190Z,48.49
2018-08-09T22:08:45.158Z,48.56
2018-08-09T22:11:20.175Z,48.64
2018-08-09T22:13:54.827Z,48.87
2018-08-09T22:16:29.714Z,49.20
2018-08-09T22:19:07.045Z,48.52
2018-08-09T22:21:41.688Z,49.13
2018-08-09T22:24:15.129Z,49.19
2018-08-09T22:26:44.841Z,48.50
2018-08-09T22:29:14.401Z,48.68
2018-08-09T22:31:43.954Z,48.58
2018-08-09T22:34:13.413Z,49.34
2018-08-09T22:36:42.966Z,49.02
2018-08-09T22:39:12.470Z,49.07
2018-08-09T22:41:41.973Z,49.35
2018-08-09T22:44:11.508Z,49.04
2018-08-09T22:46:40.991Z,49.61
2018-08-09T22:49:10.459Z,49.66
2018-08-09T22:51:39.973Z,49.40
2018-08-09T22:54:09.432Z,50.11
2018-08-09T22:56:38.987Z,50.24
2018-08-09T22:59:08.819Z,50.23
2018-08-09T23:01:38.266Z,50.03
2018-08-09T23:04:07.844Z,49.62
2018-08-09T23:06:37.378Z,50.32
2018-08-09T23:09:09.514Z,49.94
2018-08-09T23:11:39.057Z,50.37
2018-08-09T23:14:08.643Z,50.70
2018-08-09T23:16:38.185Z,50.32
2018-08-09T23:19:07.766Z,50.34
2018-08-09T23:21:37.311Z,50.34
2018-08-09T23:24:07.154Z,50.40
2018-08-09T23:26:36.699Z,50.45
2018-08-09T23:29:06.171Z,51.03
2018-08-09T23:31:35.650Z,50.85
2018-08-09T23:34:05.790Z,50.78
2018-08-09T23:36:35.297Z,50.65
2018-08-09T23:39:08.553Z,51.54
2018-08-09T23:41:38.100Z,51.65
2018-08-09T23:44:07.822Z,51.37
2018-08-09T23:46:37.858Z,51.43
2018-08-09T23:49:07.438Z,51.57
2018-08-09T23:51:36.909Z,51.44
2018-08-09T23:54:06.435Z,52.29
2018-08-09T23:56:35.940Z,52.25
2018-08-09T23:59:05.427Z,52.00
